sensor_id;sensor_type;location;lat;lon;timestamp;temperature;humidity
1546;DHT22;766;51.502;9.752;2022-11-20T00:02:42;-6.30;99.90
1546;DHT22;766;51.502;9.752;2022-11-20T00:05:12;-6.00;99.90
1546;DHT22;766;51.502;9.752;2022-11-20T00:07:40;-6.00;99.90
1546;DHT22;766;51.502;9.752;2022-11-20T00:10:09;-6.10;99.90
1546;DHT22;766;51.502;9.752;2022-11-20T00:12:40;-6.00;99.90
1546;DHT22;766;51.502;9.752;2022-11-20T00:15:09;-6.10;99.90
1546;DHT22;766;51.502;9.752;2022-11-20T00:17:38;-6.10;99.90
1546;DHT22;766;51.502;9.752;2022-11-20T00:20:08;-6.10;99.90
1546;DHT22;766;51.502;9.752;2022-11-20T00:22:38;-6.10;99.90
1546;DHT22;766;51.502;9.752;2022-11-20T00:25:07;-6.30;99.90
1546;DHT22;766;51.502;9.752;2022-11-20T00:27:35;-6.40;99.90
1546;DHT22;766;51.502;9.752;2022-11-20T00:30:08;-6.20;99.90
1546;DHT22;766;51.502;9.752;2022-11-20T00:32:41;-6.10;99.90
1546;DHT22;766;51.502;9.752;2022-11-20T00:35:09;-6.20;99.90
1546;DHT22;766;51.502;9.752;2022-11-20T00:37:39;-6.30;99.90
1546;DHT22;766;51.502;9.752;2022-11-20T00:40:08;-6.30;99.90
1546;DHT22;766;51.502;9.752;2022-11-20T00:42:37;-6.40;99.90
1546;DHT22;766;51.502;9.752;2022-11-20T00:45:06;-6.40;99.90
1546;DHT22;766;51.502;9.752;2022-11-20T00:47:35;-6.30;99.90
1546;DHT22;766;51.502;9.752;2022-11-20T00:50:04;-6.30;99.90
1546;DHT22;766;51.502;9.752;2022-11-20T00:52:32;-6.40;99.90
1546;DHT22;766;51.502;9.752;2022-11-20T00:55:04;-6.30;99.90
1546;DHT22;766;51.502;9.752;2022-11-20T00:57:32;-6.30;99.90
1546;DHT22;766;51.502;9.752;2022-11-20T01:00:00;-6.30;99.90
1546;DHT22;766;51.502;9.752;2022-11-20T01:02:29;-6.40;99.90
1546;DHT22;766;51.502;9.752;2022-11-20T01:04:57;-6.40;99.90
1546;DHT22;766;51.502;9.752;2022-11-20T01:07:26;-6.40;99.90
1546;DHT22;766;51.502;9.752;2022-11-20T01:09:54;-6.60;99.90
1546;DHT22;766;51.502;9.752;2022-11-20T01:12:24;-6.50;99.90
1546;DHT22;766;51.502;9.752;2022-11-20T01:14:53;-6.70;99.90
1546;DHT22;766;51.502;9.752;2022-11-20T01:17:21;-6.70;99.90
1546;DHT22;766;51.502;9.752;2022-11-20T01:19:50;-6.70;99.90
1546;DHT22;766;51.502;9.752;2022-11-20T01:22:19;-6.80;99.90
1546;DHT22;766;51.502;9.752;2022-11-20T01:24:47;-6.70;99.90
1546;DHT22;766;51.502;9.752;2022-11-20T01:27:15;-6.80;99.90
1546;DHT22;766;51.502;9.752;2022-11-20T01:29:45;-6.60;99.90
1546;DHT22;766;51.502;9.752;2022-11-20T01:32:14;-6.80;99.90
1546;DHT22;766;51.502;9.752;2022-11-20T01:34:42;-6.90;99.90
1546;DHT22;766;51.502;9.752;2022-11-20T01:37:10;-6.90;99.90
1546;DHT22;766;51.502;9.752;2022-11-20T01:39:40;-6.80;99.90
1546;DHT22;766;51.502;9.752;2022-11-20T01:42:08;-6.60;99.90
1546;DHT22;766;51.502;9.752;2022-11-20T01:44:58;-6.60;99.90
1546;DHT22;766;51.502;9.752;2022-11-20T01:47:33;-6.50;99.90
1546;DHT22;766;51.502;9.752;2022-11-20T01:50:08;-6.50;99.90
1546;DHT22;766;51.502;9.752;2022-11-20T01:52:42;-6.70;99.90
1546;DHT22;766;51.502;9.752;2022-11-20T01:55:19;-6.60;99.90
1546;DHT22;766;51.502;9.752;2022-11-20T01:57:48;-6.60;99.90
1546;DHT22;766;51.502;9.752;2022-11-20T02:00:20;-6.70;99.90
1546;DHT22;766;51.502;9.752;2022-11-20T02:02:53;-6.70;99.90
1546;DHT22;766;51.502;9.752;2022-11-20T02:05:27;-6.60;99.90
1546;DHT22;766;51.502;9.752;2022-11-20T02:07:57;-6.60;99.90
1546;DHT22;766;51.502;9.752;2022-11-20T02:10:27;-6.70;99.90
1546;DHT22;766;51.502;9.752;2022-11-20T02:12:56;-6.60;99.90
1546;DHT22;766;51.502;9.752;2022-11-20T02:15:44;-6.80;99.90
1546;DHT22;766;51.502;9.752;2022-11-20T02:18:14;-6.90;99.90
1546;DHT22;766;51.502;9.752;2022-11-20T02:20:45;-7.00;99.90
1546;DHT22;766;51.502;9.752;2022-11-20T02:23:19;-7.00;99.90
1546;DHT22;766;51.502;9.752;2022-11-20T02:25:51;-7.00;99.90
1546;DHT22;766;51.502;9.752;2022-11-20T02:28:20;-7.10;99.90
1546;DHT22;766;51.502;9.752;2022-11-20T02:30:50;-7.20;99.90
1546;DHT22;766;51.502;9.752;2022-11-20T02:33:21;-7.20;99.90
1546;DHT22;766;51.502;9.752;2022-11-20T02:35:50;-7.10;99.90
1546;DHT22;766;51.502;9.752;2022-11-20T02:38:19;-6.90;99.90
1546;DHT22;766;51.502;9.752;2022-11-20T02:41:03;-6.80;99.90
1546;DHT22;766;51.502;9.752;2022-11-20T02:43:44;-6.90;99.90
1546;DHT22;766;51.502;9.752;2022-11-20T02:46:14;-6.90;99.90
1546;DHT22;766;51.502;9.752;2022-11-20T02:48:42;-7.00;99.90
1546;DHT22;766;51.502;9.752;2022-11-20T02:51:11;-6.90;99.90
1546;DHT22;766;51.502;9.752;2022-11-20T02:53:39;-7.20;99.90
1546;DHT22;766;51.502;9.752;2022-11-20T02:56:09;-7.30;99.90
1546;DHT22;766;51.502;9.752;2022-11-20T02:58:37;-7.10;99.90
1546;DHT22;766;51.502;9.752;2022-11-20T03:01:09;-7.10;99.90
1546;DHT22;766;51.502;9.752;2022-11-20T03:03:38;-7.00;99.90
1546;DHT22;766;51.502;9.752;2022-11-20T03:06:07;-7.00;99.90
1546;DHT22;766;51.502;9.752;2022-11-20T03:08:36;-7.00;99.90
1546;DHT22;766;51.502;9.752;2022-11-20T03:11:06;-7.00;99.90
1546;DHT22;766;51.502;9.752;2022-11-20T03:13:51;-7.10;99.90
1546;DHT22;766;51.502;9.752;2022-11-20T03:16:21;-7.20;99.90
1546;DHT22;766;51.502;9.752;2022-11-20T03:18:52;-7.20;99.90
1546;DHT22;766;51.502;9.752;2022-11-20T03:21:21;-7.20;99.90
1546;DHT22;766;51.502;9.752;2022-11-20T03:23:50;-7.20;99.90
1546;DHT22;766;51.502;9.752;2022-11-20T03:26:20;-7.00;99.90
1546;DHT22;766;51.502;9.752;2022-11-20T03:28:51;-6.80;99.90
1546;DHT22;766;51.502;9.752;2022-11-20T03:31:30;-6.90;99.90
1546;DHT22;766;51.502;9.752;2022-11-20T03:33:59;-7.20;99.90
1546;DHT22;766;51.502;9.752;2022-11-20T03:36:28;-7.30;99.90
1546;DHT22;766;51.502;9.752;2022-11-20T03:38:57;-7.20;99.90
1546;DHT22;766;51.502;9.752;2022-11-20T03:41:40;-7.10;99.90
1546;DHT22;766;51.502;9.752;2022-11-20T03:44:12;-7.30;99.90
1546;DHT22;766;51.502;9.752;2022-11-20T03:46:40;-7.50;99.90
1546;DHT22;766;51.502;9.752;2022-11-20T03:49:08;-7.40;99.90
1546;DHT22;766;51.502;9.752;2022-11-20T03:51:37;-7.10;99.90
1546;DHT22;766;51.502;9.752;2022-11-20T03:54:08;-7.20;99.90
1546;DHT22;766;51.502;9.752;2022-11-20T03:56:38;-7.20;99.90
1546;DHT22;766;51.502;9.752;2022-11-20T03:59:09;-7.20;99.90
1546;DHT22;766;51.502;9.752;2022-11-20T04:01:40;-7.00;99.90
1546;DHT22;766;51.502;9.752;2022-11-20T04:04:18;-7.10;99.90
1546;DHT22;766;51.502;9.752;2022-11-20T04:06:46;-7.20;99.90
1546;DHT22;766;51.502;9.752;2022-11-20T04:09:14;-7.30;99.90
1546;DHT22;766;51.502;9.752;2022-11-20T04:11:43;-7.20;99.90
1546;DHT22;766;51.502;9.752;2022-11-20T04:14:14;-7.40;99.90
1546;DHT22;766;51.502;9.752;2022-11-20T04:16:44;-7.30;99.90
1546;DHT22;766;51.502;9.752;2022-11-20T04:19:14;-7.40;99.90
1546;DHT22;766;51.502;9.752;2022-11-20T04:21:43;-7.30;99.90
1546;DHT22;766;51.502;9.752;2022-11-20T04:24:11;-7.20;99.90
1546;DHT22;766;51.502;9.752;2022-11-20T04:26:40;-7.30;99.90
1546;DHT22;766;51.502;9.752;2022-11-20T04:29:10;-7.20;99.90
1546;DHT22;766;51.502;9.752;2022-11-20T04:31:39;-7.10;99.90
1546;DHT22;766;51.502;9.752;2022-11-20T04:34:11;-7.30;99.90
1546;DHT22;766;51.502;9.752;2022-11-20T04:36:40;-7.40;99.90
1546;DHT22;766;51.502;9.752;2022-11-20T04:39:13;-7.30;99.90
1546;DHT22;766;51.502;9.752;2022-11-20T04:41:42;-7.10;99.90
1546;DHT22;766;51.502;9.752;2022-11-20T04:44:11;-7.00;99.90
1546;DHT22;766;51.502;9.752;2022-11-20T04:46:40;-7.10;99.90
1546;DHT22;766;51.502;9.752;2022-11-20T04:49:12;-7.20;99.90
1546;DHT22;766;51.502;9.752;2022-11-20T04:51:41;-7.10;99.90
1546;DHT22;766;51.502;9.752;2022-11-20T04:54:11;-7.20;99.90
1546;DHT22;766;51.502;9.752;2022-11-20T04:56:39;-7.40;99.90
1546;DHT22;766;51.502;9.752;2022-11-20T04:59:08;-7.30;99.90
1546;DHT22;766;51.502;9.752;2022-11-20T05:01:36;-7.20;99.90
1546;DHT22;766;51.502;9.752;2022-11-20T05:04:04;-7.30;99.90
1546;DHT22;766;51.502;9.752;2022-11-20T05:06:34;-7.40;99.90
1546;DHT22;766;51.502;9.752;2022-11-20T05:09:03;-7.30;99.90
1546;DHT22;766;51.502;9.752;2022-11-20T05:11:32;-7.20;99.90
1546;DHT22;766;51.502;9.752;2022-11-20T05:14:00;-7.40;99.90
1546;DHT22;766;51.502;9.752;2022-11-20T05:16:29;-7.30;99.90
1546;DHT22;766;51.502;9.752;2022-11-20T05:18:58;-7.30;99.90
1546;DHT22;766;51.502;9.752;2022-11-20T05:21:26;-7.30;99.90
1546;DHT22;766;51.502;9.752;2022-11-20T05:23:56;-7.30;99.90
1546;DHT22;766;51.502;9.752;2022-11-20T05:26:25;-6.90;99.90
1546;DHT22;766;51.502;9.752;2022-11-20T05:28:54;-6.30;99.90
1546;DHT22;766;51.502;9.752;2022-11-20T05:31:25;-6.00;99.90
1546;DHT22;766;51.502;9.752;2022-11-20T05:33:55;-5.80;99.90
1546;DHT22;766;51.502;9.752;2022-11-20T05:36:25;-5.70;99.90
1546;DHT22;766;51.502;9.752;2022-11-20T05:38:53;-5.60;99.90
1546;DHT22;766;51.502;9.752;2022-11-20T05:41:29;-5.60;99.90
1546;DHT22;766;51.502;9.752;2022-11-20T05:43:58;-5.60;99.90
1546;DHT22;766;51.502;9.752;2022-11-20T05:46:27;-5.60;99.90
1546;DHT22;766;51.502;9.752;2022-11-20T05:48:56;-5.50;99.90
1546;DHT22;766;51.502;9.752;2022-11-20T05:51:25;-5.50;99.90
1546;DHT22;766;51.502;9.752;2022-11-20T05:53:55;-5.50;99.90
1546;DHT22;766;51.502;9.752;2022-11-20T05:56:24;-5.60;99.90
1546;DHT22;766;51.502;9.752;2022-11-20T05:58:53;-5.60;99.90
1546;DHT22;766;51.502;9.752;2022-11-20T06:01:24;-5.60;99.90
1546;DHT22;766;51.502;9.752;2022-11-20T06:03:54;-5.60;99.90
1546;DHT22;766;51.502;9.752;2022-11-20T06:06:23;-5.60;99.90
1546;DHT22;766;51.502;9.752;2022-11-20T06:08:53;-5.50;99.90
1546;DHT22;766;51.502;9.752;2022-11-20T06:11:21;-5.50;99.90
1546;DHT22;766;51.502;9.752;2022-11-20T06:13:51;-5.50;99.90
1546;DHT22;766;51.502;9.752;2022-11-20T06:16:21;-5.60;99.90
1546;DHT22;766;51.502;9.752;2022-11-20T06:18:49;-5.60;99.90
1546;DHT22;766;51.502;9.752;2022-11-20T06:21:20;-5.60;99.90
1546;DHT22;766;51.502;9.752;2022-11-20T06:23:50;-5.50;99.90
1546;DHT22;766;51.502;9.752;2022-11-20T06:26:21;-5.40;99.90
1546;DHT22;766;51.502;9.752;2022-11-20T06:28:50;-5.50;99.90
1546;DHT22;766;51.502;9.752;2022-11-20T06:31:22;-5.60;99.90
1546;DHT22;766;51.502;9.752;2022-11-20T06:33:51;-5.60;99.90
1546;DHT22;766;51.502;9.752;2022-11-20T06:36:21;-5.70;99.90
1546;DHT22;766;51.502;9.752;2022-11-20T06:38:50;-5.70;99.90
1546;DHT22;766;51.502;9.752;2022-11-20T06:41:20;-5.70;99.90
1546;DHT22;766;51.502;9.752;2022-11-20T06:43:49;-5.70;99.90
1546;DHT22;766;51.502;9.752;2022-11-20T06:46:18;-5.70;99.90
1546;DHT22;766;51.502;9.752;2022-11-20T06:48:49;-5.70;99.90
1546;DHT22;766;51.502;9.752;2022-11-20T06:51:18;-5.70;99.90
1546;DHT22;766;51.502;9.752;2022-11-20T06:53:46;-5.60;99.90
1546;DHT22;766;51.502;9.752;2022-11-20T06:56:15;-5.50;99.90
1546;DHT22;766;51.502;9.752;2022-11-20T06:58:43;-5.60;99.90
1546;DHT22;766;51.502;9.752;2022-11-20T07:01:13;-5.50;99.90
1546;DHT22;766;51.502;9.752;2022-11-20T07:03:42;-5.50;99.90
1546;DHT22;766;51.502;9.752;2022-11-20T07:06:11;-5.60;99.90
1546;DHT22;766;51.502;9.752;2022-11-20T07:08:40;-5.60;99.90
1546;DHT22;766;51.502;9.752;2022-11-20T07:11:11;-5.50;99.90
1546;DHT22;766;51.502;9.752;2022-11-20T07:13:39;-5.50;99.90
1546;DHT22;766;51.502;9.752;2022-11-20T07:16:08;-5.50;99.90
1546;DHT22;766;51.502;9.752;2022-11-20T07:18:37;-5.60;99.90
1546;DHT22;766;51.502;9.752;2022-11-20T07:21:07;-5.70;99.90
1546;DHT22;766;51.502;9.752;2022-11-20T07:23:38;-5.70;99.90
1546;DHT22;766;51.502;9.752;2022-11-20T07:26:07;-5.70;99.90
1546;DHT22;766;51.502;9.752;2022-11-20T07:28:37;-5.70;99.90
1546;DHT22;766;51.502;9.752;2022-11-20T07:31:06;-5.70;99.90
1546;DHT22;766;51.502;9.752;2022-11-20T07:33:35;-5.70;99.90
1546;DHT22;766;51.502;9.752;2022-11-20T07:36:04;-5.60;99.90
1546;DHT22;766;51.502;9.752;2022-11-20T07:38:33;-5.60;99.90
1546;DHT22;766;51.502;9.752;2022-11-20T07:41:04;-5.50;99.90
1546;DHT22;766;51.502;9.752;2022-11-20T07:43:32;-5.50;99.90
1546;DHT22;766;51.502;9.752;2022-11-20T07:46:07;-5.50;99.90
1546;DHT22;766;51.502;9.752;2022-11-20T07:48:35;-5.50;99.90
1546;DHT22;766;51.502;9.752;2022-11-20T07:51:05;-5.30;99.90
1546;DHT22;766;51.502;9.752;2022-11-20T07:53:34;-5.30;99.90
1546;DHT22;766;51.502;9.752;2022-11-20T07:56:05;-5.20;99.90
1546;DHT22;766;51.502;9.752;2022-11-20T07:58:33;-5.30;99.90
1546;DHT22;766;51.502;9.752;2022-11-20T08:01:06;-5.50;99.90
1546;DHT22;766;51.502;9.752;2022-11-20T08:03:36;-5.50;99.90
1546;DHT22;766;51.502;9.752;2022-11-20T08:06:07;-5.20;99.90
1546;DHT22;766;51.502;9.752;2022-11-20T08:08:36;-5.30;99.90
1546;DHT22;766;51.502;9.752;2022-11-20T08:11:10;-5.20;99.90
1546;DHT22;766;51.502;9.752;2022-11-20T08:13:56;-5.20;99.90
1546;DHT22;766;51.502;9.752;2022-11-20T08:16:40;-5.20;99.90
1546;DHT22;766;51.502;9.752;2022-11-20T08:19:09;-5.30;99.90
1546;DHT22;766;51.502;9.752;2022-11-20T08:21:37;-5.20;99.90
1546;DHT22;766;51.502;9.752;2022-11-20T08:24:10;-5.10;99.90
1546;DHT22;766;51.502;9.752;2022-11-20T08:26:40;-5.00;99.90
1546;DHT22;766;51.502;9.752;2022-11-20T08:29:08;-5.00;99.90
1546;DHT22;766;51.502;9.752;2022-11-20T08:31:37;-4.90;99.90
1546;DHT22;766;51.502;9.752;2022-11-20T08:34:05;-4.90;99.90
1546;DHT22;766;51.502;9.752;2022-11-20T08:36:38;-4.80;99.90
1546;DHT22;766;51.502;9.752;2022-11-20T08:39:07;-4.70;99.90
1546;DHT22;766;51.502;9.752;2022-11-20T08:41:35;-4.60;99.90
1546;DHT22;766;51.502;9.752;2022-11-20T08:44:12;-4.50;99.90
1546;DHT22;766;51.502;9.752;2022-11-20T08:46:41;-4.40;99.90
1546;DHT22;766;51.502;9.752;2022-11-20T08:49:12;-4.30;99.90
1546;DHT22;766;51.502;9.752;2022-11-20T08:51:41;-4.10;99.90
1546;DHT22;766;51.502;9.752;2022-11-20T08:54:09;-4.00;99.90
1546;DHT22;766;51.502;9.752;2022-11-20T08:56:37;-3.90;99.90
1546;DHT22;766;51.502;9.752;2022-11-20T08:59:06;-3.80;99.90
1546;DHT22;766;51.502;9.752;2022-11-20T09:01:57;-3.70;99.90
1546;DHT22;766;51.502;9.752;2022-11-20T09:04:26;-3.60;99.90
1546;DHT22;766;51.502;9.752;2022-11-20T09:06:55;-3.50;99.90
1546;DHT22;766;51.502;9.752;2022-11-20T09:09:23;-3.50;99.90
1546;DHT22;766;51.502;9.752;2022-11-20T09:11:52;-3.50;99.90
1546;DHT22;766;51.502;9.752;2022-11-20T09:14:20;-3.40;99.90
1546;DHT22;766;51.502;9.752;2022-11-20T09:16:52;-3.30;99.90
1546;DHT22;766;51.502;9.752;2022-11-20T09:19:23;-3.40;99.90
1546;DHT22;766;51.502;9.752;2022-11-20T09:22:07;-3.20;99.90
1546;DHT22;766;51.502;9.752;2022-11-20T09:24:35;-3.10;99.90
1546;DHT22;766;51.502;9.752;2022-11-20T09:27:04;-3.00;99.90
1546;DHT22;766;51.502;9.752;2022-11-20T09:29:33;-2.90;99.90
1546;DHT22;766;51.502;9.752;2022-11-20T09:32:02;-2.80;99.90
1546;DHT22;766;51.502;9.752;2022-11-20T09:34:31;-2.80;99.90
1546;DHT22;766;51.502;9.752;2022-11-20T09:37:00;-2.80;99.90
1546;DHT22;766;51.502;9.752;2022-11-20T09:39:33;-2.70;99.90
1546;DHT22;766;51.502;9.752;2022-11-20T09:42:25;-2.60;99.90
1546;DHT22;766;51.502;9.752;2022-11-20T09:45:21;-2.50;99.90
1546;DHT22;766;51.502;9.752;2022-11-20T09:48:13;-2.40;99.90
1546;DHT22;766;51.502;9.752;2022-11-20T09:50:51;-2.30;99.90
1546;DHT22;766;51.502;9.752;2022-11-20T09:53:29;-2.10;99.90
1546;DHT22;766;51.502;9.752;2022-11-20T09:56:01;-1.90;99.90
1546;DHT22;766;51.502;9.752;2022-11-20T09:58:33;-1.60;99.90
1546;DHT22;766;51.502;9.752;2022-11-20T10:01:10;-1.70;99.90
1546;DHT22;766;51.502;9.752;2022-11-20T10:03:54;-1.50;99.90
1546;DHT22;766;51.502;9.752;2022-11-20T10:06:30;-1.40;99.90
1546;DHT22;766;51.502;9.752;2022-11-20T10:09:06;-1.40;99.90
1546;DHT22;766;51.502;9.752;2022-11-20T10:11:45;-1.40;99.90
1546;DHT22;766;51.502;9.752;2022-11-20T10:14:26;-1.40;99.90
1546;DHT22;766;51.502;9.752;2022-11-20T10:17:03;-1.40;99.90
1546;DHT22;766;51.502;9.752;2022-11-20T10:19:45;-1.20;99.90
1546;DHT22;766;51.502;9.752;2022-11-20T10:22:34;-1.10;99.90
1546;DHT22;766;51.502;9.752;2022-11-20T10:25:08;-0.80;99.90
1546;DHT22;766;51.502;9.752;2022-11-20T10:28:03;-0.40;99.90
1546;DHT22;766;51.502;9.752;2022-11-20T10:30:37;-0.40;99.90
1546;DHT22;766;51.502;9.752;2022-11-20T10:33:13;-0.70;99.90
1546;DHT22;766;51.502;9.752;2022-11-20T10:35:45;-0.60;99.90
1546;DHT22;766;51.502;9.752;2022-11-20T10:38:21;-0.60;99.90
1546;DHT22;766;51.502;9.752;2022-11-20T10:40:55;-0.60;99.90
1546;DHT22;766;51.502;9.752;2022-11-20T10:43:48;-0.60;99.90
1546;DHT22;766;51.502;9.752;2022-11-20T10:46:21;-0.40;99.90
1546;DHT22;766;51.502;9.752;2022-11-20T10:48:51;-0.60;99.90
1546;DHT22;766;51.502;9.752;2022-11-20T10:51:30;-0.40;99.90
1546;DHT22;766;51.502;9.752;2022-11-20T10:54:10;-0.30;99.90
1546;DHT22;766;51.502;9.752;2022-11-20T10:56:45;-0.20;99.90
1546;DHT22;766;51.502;9.752;2022-11-20T10:59:40;0.00;99.90
1546;DHT22;766;51.502;9.752;2022-11-20T11:02:18;-0.10;99.90
1546;DHT22;766;51.502;9.752;2022-11-20T11:04:49;0.00;99.90
1546;DHT22;766;51.502;9.752;2022-11-20T11:07:21;0.00;99.90
1546;DHT22;766;51.502;9.752;2022-11-20T11:09:54;0.00;99.90
1546;DHT22;766;51.502;9.752;2022-11-20T11:12:24;0.00;99.90
1546;DHT22;766;51.502;9.752;2022-11-20T11:14:54;0.20;99.90
1546;DHT22;766;51.502;9.752;2022-11-20T11:17:26;0.10;99.90
1546;DHT22;766;51.502;9.752;2022-11-20T11:20:14;0.00;99.90
1546;DHT22;766;51.502;9.752;2022-11-20T11:22:45;0.20;99.90
1546;DHT22;766;51.502;9.752;2022-11-20T11:25:25;0.30;99.90
1546;DHT22;766;51.502;9.752;2022-11-20T11:28:01;0.40;99.90
1546;DHT22;766;51.502;9.752;2022-11-20T11:30:41;0.40;99.90
1546;DHT22;766;51.502;9.752;2022-11-20T11:33:18;0.50;99.90
1546;DHT22;766;51.502;9.752;2022-11-20T11:35:49;0.40;99.90
1546;DHT22;766;51.502;9.752;2022-11-20T11:38:23;0.70;99.90
1546;DHT22;766;51.502;9.752;2022-11-20T11:40:59;0.70;99.90
1546;DHT22;766;51.502;9.752;2022-11-20T11:43:30;0.90;99.90
1546;DHT22;766;51.502;9.752;2022-11-20T11:46:29;0.80;99.90
1546;DHT22;766;51.502;9.752;2022-11-20T11:49:01;0.70;99.90
1546;DHT22;766;51.502;9.752;2022-11-20T11:51:38;0.80;99.90
1546;DHT22;766;51.502;9.752;2022-11-20T11:54:16;0.80;99.90
1546;DHT22;766;51.502;9.752;2022-11-20T11:56:47;0.80;99.90
1546;DHT22;766;51.502;9.752;2022-11-20T11:59:23;1.00;99.90
1546;DHT22;766;51.502;9.752;2022-11-20T12:01:56;1.20;99.90
1546;DHT22;766;51.502;9.752;2022-11-20T12:04:40;1.10;99.90
1546;DHT22;766;51.502;9.752;2022-11-20T12:07:13;1.40;99.90
1546;DHT22;766;51.502;9.752;2022-11-20T12:10:04;1.30;99.90
1546;DHT22;766;51.502;9.752;2022-11-20T12:12:40;1.40;99.90
1546;DHT22;766;51.502;9.752;2022-11-20T12:15:10;1.30;99.90
1546;DHT22;766;51.502;9.752;2022-11-20T12:17:40;1.30;99.90
1546;DHT22;766;51.502;9.752;2022-11-20T12:20:13;1.60;99.90
1546;DHT22;766;51.502;9.752;2022-11-20T12:22:48;1.80;99.90
1546;DHT22;766;51.502;9.752;2022-11-20T12:25:22;1.40;99.90
1546;DHT22;766;51.502;9.752;2022-11-20T12:31:03;1.40;99.90
1546;DHT22;766;51.502;9.752;2022-11-20T12:33:50;1.40;99.90
1546;DHT22;766;51.502;9.752;2022-11-20T12:36:29;1.10;99.90
1546;DHT22;766;51.502;9.752;2022-11-20T12:39:17;1.30;99.90
1546;DHT22;766;51.502;9.752;2022-11-20T12:42:20;1.10;99.90
1546;DHT22;766;51.502;9.752;2022-11-20T12:45:34;1.30;99.90
1546;DHT22;766;51.502;9.752;2022-11-20T12:48:29;1.40;99.90
1546;DHT22;766;51.502;9.752;2022-11-20T12:51:20;1.50;99.90
1546;DHT22;766;51.502;9.752;2022-11-20T12:54:02;1.80;99.90
1546;DHT22;766;51.502;9.752;2022-11-20T12:56:41;1.80;99.90
1546;DHT22;766;51.502;9.752;2022-11-20T12:59:29;1.70;99.90
1546;DHT22;766;51.502;9.752;2022-11-20T13:02:15;1.50;99.90
1546;DHT22;766;51.502;9.752;2022-11-20T13:04:58;1.50;99.90
1546;DHT22;766;51.502;9.752;2022-11-20T13:07:30;1.90;99.90
1546;DHT22;766;51.502;9.752;2022-11-20T13:10:00;1.70;99.90
1546;DHT22;766;51.502;9.752;2022-11-20T13:12:36;1.80;99.90
1546;DHT22;766;51.502;9.752;2022-11-20T13:15:14;1.90;99.90
1546;DHT22;766;51.502;9.752;2022-11-20T13:17:52;1.80;99.90
1546;DHT22;766;51.502;9.752;2022-11-20T13:20:22;1.60;99.90
1546;DHT22;766;51.502;9.752;2022-11-20T13:22:52;1.20;99.90
1546;DHT22;766;51.502;9.752;2022-11-20T13:25:26;0.90;99.90
1546;DHT22;766;51.502;9.752;2022-11-20T13:27:56;0.90;99.90
1546;DHT22;766;51.502;9.752;2022-11-20T13:30:26;0.90;99.90
1546;DHT22;766;51.502;9.752;2022-11-20T13:32:58;1.00;99.90
1546;DHT22;766;51.502;9.752;2022-11-20T13:35:31;0.90;99.90
1546;DHT22;766;51.502;9.752;2022-11-20T13:38:05;0.50;99.90
1546;DHT22;766;51.502;9.752;2022-11-20T13:40:36;0.20;99.90
1546;DHT22;766;51.502;9.752;2022-11-20T13:43:11;-0.10;99.90
1546;DHT22;766;51.502;9.752;2022-11-20T13:45:55;-0.30;99.90
1546;DHT22;766;51.502;9.752;2022-11-20T13:48:29;-0.20;99.90
1546;DHT22;766;51.502;9.752;2022-11-20T13:51:10;-0.30;99.90
1546;DHT22;766;51.502;9.752;2022-11-20T13:56:54;-0.10;99.90
1546;DHT22;766;51.502;9.752;2022-11-20T13:59:40;-0.10;99.90
1546;DHT22;766;51.502;9.752;2022-11-20T14:02:13;0.10;99.90
1546;DHT22;766;51.502;9.752;2022-11-20T14:04:47;0.00;99.90
1546;DHT22;766;51.502;9.752;2022-11-20T14:07:18;-0.10;99.90
1546;DHT22;766;51.502;9.752;2022-11-20T14:09:51;-0.40;99.90
1546;DHT22;766;51.502;9.752;2022-11-20T14:12:22;-0.50;99.90
1546;DHT22;766;51.502;9.752;2022-11-20T14:14:53;-0.70;99.90
1546;DHT22;766;51.502;9.752;2022-11-20T14:17:23;-0.70;99.90
1546;DHT22;766;51.502;9.752;2022-11-20T14:19:57;-0.60;99.90
1546;DHT22;766;51.502;9.752;2022-11-20T14:22:27;-0.80;99.90
1546;DHT22;766;51.502;9.752;2022-11-20T14:25:05;-0.90;99.90
1546;DHT22;766;51.502;9.752;2022-11-20T14:27:35;-0.90;99.90
1546;DHT22;766;51.502;9.752;2022-11-20T14:30:05;-0.90;99.90
1546;DHT22;766;51.502;9.752;2022-11-20T14:32:35;-1.10;99.90
1546;DHT22;766;51.502;9.752;2022-11-20T14:35:10;-1.20;99.90
1546;DHT22;766;51.502;9.752;2022-11-20T14:37:41;-1.20;99.90
1546;DHT22;766;51.502;9.752;2022-11-20T14:40:24;-1.20;99.90
1546;DHT22;766;51.502;9.752;2022-11-20T14:42:54;-1.20;99.90
1546;DHT22;766;51.502;9.752;2022-11-20T14:45:23;-1.30;99.90
1546;DHT22;766;51.502;9.752;2022-11-20T14:47:52;-1.30;99.90
1546;DHT22;766;51.502;9.752;2022-11-20T14:50:24;-1.30;99.90
1546;DHT22;766;51.502;9.752;2022-11-20T14:52:54;-1.30;99.90
1546;DHT22;766;51.502;9.752;2022-11-20T14:55:28;-1.30;99.90
1546;DHT22;766;51.502;9.752;2022-11-20T14:57:59;-1.30;99.90
1546;DHT22;766;51.502;9.752;2022-11-20T15:00:29;-1.30;99.90
1546;DHT22;766;51.502;9.752;2022-11-20T15:02:58;-1.30;99.90
1546;DHT22;766;51.502;9.752;2022-11-20T15:05:47;-1.30;99.90
1546;DHT22;766;51.502;9.752;2022-11-20T15:08:17;-1.30;99.90
1546;DHT22;766;51.502;9.752;2022-11-20T15:10:47;-1.20;99.90
1546;DHT22;766;51.502;9.752;2022-11-20T15:13:23;-1.20;99.90
1546;DHT22;766;51.502;9.752;2022-11-20T15:15:54;-1.10;99.90
1546;DHT22;766;51.502;9.752;2022-11-20T15:18:25;-1.10;99.90
1546;DHT22;766;51.502;9.752;2022-11-20T15:20:57;-1.10;99.90
1546;DHT22;766;51.502;9.752;2022-11-20T15:23:27;-1.00;99.90
1546;DHT22;766;51.502;9.752;2022-11-20T15:25:56;-1.00;99.90
1546;DHT22;766;51.502;9.752;2022-11-20T15:28:30;-1.00;99.90
1546;DHT22;766;51.502;9.752;2022-11-20T15:31:00;-0.90;99.90
1546;DHT22;766;51.502;9.752;2022-11-20T15:33:29;-1.00;99.90
1546;DHT22;766;51.502;9.752;2022-11-20T15:36:00;-0.90;99.90
1546;DHT22;766;51.502;9.752;2022-11-20T15:38:29;-0.90;99.90
1546;DHT22;766;51.502;9.752;2022-11-20T15:40:58;-0.90;99.90
1546;DHT22;766;51.502;9.752;2022-11-20T15:43:27;-0.90;99.90
1546;DHT22;766;51.502;9.752;2022-11-20T15:45:58;-0.90;99.90
1546;DHT22;766;51.502;9.752;2022-11-20T15:48:29;-0.90;99.90
1546;DHT22;766;51.502;9.752;2022-11-20T15:51:02;-0.90;99.90
1546;DHT22;766;51.502;9.752;2022-11-20T15:53:32;-0.90;99.90
1546;DHT22;766;51.502;9.752;2022-11-20T15:56:02;-0.90;99.90
1546;DHT22;766;51.502;9.752;2022-11-20T15:58:30;-0.90;99.90
1546;DHT22;766;51.502;9.752;2022-11-20T16:00:58;-0.90;99.90
1546;DHT22;766;51.502;9.752;2022-11-20T16:03:27;-0.80;99.90
1546;DHT22;766;51.502;9.752;2022-11-20T16:05:56;-0.80;99.90
1546;DHT22;766;51.502;9.752;2022-11-20T16:08:26;-0.70;99.90
1546;DHT22;766;51.502;9.752;2022-11-20T16:10:54;-0.70;99.90
1546;DHT22;766;51.502;9.752;2022-11-20T16:13:22;-0.70;99.90
1546;DHT22;766;51.502;9.752;2022-11-20T16:16:14;-0.70;99.90
1546;DHT22;766;51.502;9.752;2022-11-20T16:18:46;-0.70;99.90
1546;DHT22;766;51.502;9.752;2022-11-20T16:21:15;-0.60;99.90
1546;DHT22;766;51.502;9.752;2022-11-20T16:23:44;-0.50;99.90
1546;DHT22;766;51.502;9.752;2022-11-20T16:26:14;-0.50;99.90
1546;DHT22;766;51.502;9.752;2022-11-20T16:28:44;-0.50;99.90
1546;DHT22;766;51.502;9.752;2022-11-20T16:31:13;-0.40;99.90
1546;DHT22;766;51.502;9.752;2022-11-20T16:33:42;-0.40;99.90
1546;DHT22;766;51.502;9.752;2022-11-20T16:36:12;-0.40;99.90
1546;DHT22;766;51.502;9.752;2022-11-20T16:38:41;-0.40;99.90
1546;DHT22;766;51.502;9.752;2022-11-20T16:41:11;-0.30;99.90
1546;DHT22;766;51.502;9.752;2022-11-20T16:43:44;-0.30;99.90
1546;DHT22;766;51.502;9.752;2022-11-20T16:46:13;-0.30;99.90
1546;DHT22;766;51.502;9.752;2022-11-20T16:48:42;-0.30;99.90
1546;DHT22;766;51.502;9.752;2022-11-20T16:51:11;-0.30;99.90
1546;DHT22;766;51.502;9.752;2022-11-20T16:53:40;-0.30;99.90
1546;DHT22;766;51.502;9.752;2022-11-20T16:56:11;-0.20;99.90
1546;DHT22;766;51.502;9.752;2022-11-20T16:58:42;-0.10;99.90
1546;DHT22;766;51.502;9.752;2022-11-20T17:01:13;-0.20;99.90